createdAt,value
2022-11-10T00:06:49.580Z,98042.72
2022-11-10T00:17:02.064Z,98046.75
2022-11-10T00:27:08.380Z,98055.78
2022-11-10T00:37:14.700Z,98053.00
2022-11-10T00:47:20.988Z,98050.50
2022-11-10T00:57:27.321Z,98053.56
2022-11-10T01:07:33.776Z,98064.84
2022-11-10T01:17:40.081Z,98070.56
2022-11-10T01:27:46.714Z,98064.34
2022-11-10T01:37:54.186Z,98079.72
2022-11-10T01:48:04.125Z,98098.91
2022-11-10T01:58:10.897Z,98082.69
2022-11-10T02:08:17.942Z,98103.72
2022-11-10T02:18:24.254Z,98109.19
2022-11-10T02:28:35.213Z,98102.50
2022-11-10T02:38:41.726Z,98107.47
2022-11-10T02:48:48.007Z,98093.69
2022-11-10T02:58:54.668Z,98085.19
2022-11-10T03:09:01.181Z,98099.88
2022-11-10T03:19:07.517Z,98106.91
2022-11-10T03:29:13.877Z,98087.41
2022-11-10T03:39:18.262Z,98079.19
2022-11-10T03:49:24.797Z,98072.84
2022-11-10T03:59:31.484Z,98080.56
2022-11-10T04:09:37.870Z,98071.38
2022-11-10T04:19:44.178Z,98073.72
2022-11-10T04:29:50.470Z,98093.50
2022-11-10T04:39:56.788Z,98104.69
2022-11-10T04:50:03.081Z,98121.44
2022-11-10T05:00:10.760Z,98124.75
2022-11-10T05:10:17.268Z,98142.47
2022-11-10T05:20:25.840Z,98144.81
2022-11-10T05:30:32.200Z,98150.81
2022-11-10T05:40:38.493Z,98173.88
2022-11-10T05:50:45.944Z,98185.03
2022-11-10T06:00:52.309Z,98206.34
2022-11-10T06:10:58.703Z,98241.16
2022-11-10T06:21:05.072Z,98258.34
2022-11-10T06:31:11.365Z,98258.19
2022-11-10T06:41:21.300Z,98266.13
2022-11-10T06:51:31.774Z,98253.13
2022-11-10T07:01:38.079Z,98269.16
2022-11-10T07:11:44.484Z,98265.53
2022-11-10T07:21:50.829Z,98260.31
2022-11-10T07:31:57.417Z,98268.44
2022-11-10T07:42:03.701Z,98261.41
2022-11-10T07:52:10.456Z,98274.56
2022-11-10T08:02:16.857Z,98272.47
2022-11-10T08:12:23.137Z,98122.16
2022-11-10T08:22:29.768Z,98098.44
2022-11-10T08:32:36.192Z,98109.00
2022-11-10T08:42:42.521Z,98115.41
2022-11-10T08:52:48.797Z,98137.78
2022-11-10T09:02:56.297Z,98159.88
2022-11-10T09:13:04.054Z,98183.53
2022-11-10T09:23:12.968Z,98212.44
2022-11-10T09:33:19.555Z,98229.41
2022-11-10T09:43:47.150Z,98253.81
2022-11-10T09:53:59.289Z,98279.78
2022-11-10T10:04:17.220Z,98282.47
2022-11-10T10:14:40.696Z,98289.03
2022-11-10T10:24:47.160Z,98302.22
2022-11-10T10:34:53.498Z,98316.16
2022-11-10T10:45:22.212Z,98330.63
2022-11-10T10:55:29.475Z,98353.69
2022-11-10T11:05:35.842Z,98380.91
2022-11-10T11:15:42.169Z,98415.69
2022-11-10T11:25:49.529Z,98454.75
2022-11-10T11:36:02.896Z,98466.41
2022-11-10T11:46:51.038Z,98499.34
2022-11-10T11:57:19.031Z,98530.22
2022-11-10T12:07:29.186Z,98548.69
2022-11-10T12:17:55.925Z,98578.22
2022-11-10T12:28:26.433Z,98592.16
2022-11-10T12:39:00.766Z,98593.47
2022-11-10T12:49:29.353Z,98639.41
2022-11-10T12:59:37.930Z,98739.56
2022-11-10T13:09:45.100Z,98776.69
2022-11-10T13:19:52.668Z,98806.34
2022-11-10T13:30:00.130Z,98845.81
2022-11-10T13:40:18.713Z,98860.94
2022-11-10T13:50:40.723Z,98873.03
2022-11-10T14:00:51.469Z,98902.28
2022-11-10T14:11:01.838Z,98920.75
2022-11-10T14:21:11.323Z,98939.34
2022-11-10T14:31:21.579Z,98943.75
2022-11-10T14:41:27.571Z,98949.87
2022-11-10T14:51:35.812Z,98976.44
2022-11-10T15:01:45.784Z,98997.22
2022-11-10T15:11:56.139Z,98986.81
2022-11-10T15:22:14.477Z,98989.06
2022-11-10T15:32:23.330Z,98972.00
2022-11-10T15:42:29.649Z,98979.75
2022-11-10T15:52:36.128Z,98983.06
2022-11-10T16:02:43.888Z,98981.78
2022-11-10T16:12:50.186Z,98944.16
2022-11-10T16:22:56.485Z,98933.19
2022-11-10T16:33:02.879Z,98890.25
2022-11-10T16:43:19.146Z,98854.34
2022-11-10T16:53:28.324Z,98854.69
2022-11-10T17:03:37.533Z,98858.63
2022-11-10T17:13:43.867Z,98891.88
2022-11-10T17:23:50.150Z,98908.94
2022-11-10T17:33:56.521Z,98911.47
2022-11-10T17:44:02.905Z,98928.38
2022-11-10T17:54:16.270Z,98945.31
2022-11-10T18:04:22.572Z,98940.94
2022-11-10T18:14:28.983Z,98949.91
2022-11-10T18:24:35.299Z,98950.66
2022-11-10T18:34:41.661Z,98966.91
2022-11-10T18:44:47.976Z,98960.41
2022-11-10T18:54:54.296Z,98968.25
2022-11-10T19:05:00.600Z,98983.00
2022-11-10T19:15:07.371Z,98996.31
2022-11-10T19:25:13.631Z,99016.50
2022-11-10T19:35:19.904Z,99035.59
2022-11-10T19:45:26.380Z,99057.72
2022-11-10T19:55:33.768Z,99082.38
2022-11-10T20:05:41.103Z,99127.38
2022-11-10T20:15:47.447Z,99138.78
2022-11-10T20:26:06.573Z,99158.75
2022-11-10T20:36:20.170Z,99184.97
2022-11-10T20:46:52.933Z,99182.72
2022-11-10T20:56:53.799Z,99168.50
2022-11-10T21:07:00.207Z,99157.59
2022-11-10T21:17:06.795Z,99162.97
2022-11-10T21:27:13.880Z,99134.25
2022-11-10T21:37:20.197Z,99131.28
2022-11-10T21:47:26.480Z,99124.63
2022-11-10T21:57:32.801Z,99128.81
2022-11-10T22:07:40.566Z,99118.66
2022-11-10T22:18:05.528Z,99107.28
2022-11-10T22:28:11.976Z,99116.59
2022-11-10T22:38:18.392Z,99103.81
2022-11-10T22:48:27.482Z,99109.91
2022-11-10T22:58:33.914Z,99111.78
2022-11-10T23:08:40.617Z,99098.19
2022-11-10T23:18:47.892Z,99096.69
2022-11-10T23:28:54.620Z,99114.78
2022-11-10T23:39:01.112Z,99123.84
2022-11-10T23:49:07.580Z,99136.94
2022-11-10T23:59:14.001Z,99138.25
